Time;durP1;ratioP1;P1;durP2;ratioP2;P2;SDS_P1;SDS_P2;PMS_P1;PMS_P2;Temp;Humidity;BMP_temperature;BMP_pressure;BME280_temperature;BME280_humidity;BME280_pressure;Samples;Min_cycle;Max_cycle;Signal;HPM_P1;HPM_P2
2022/01/19 00:00:50;;;;;;;4.80;3.80;;;;;4.70;97843.00;;;;8396491;28;20254;-78
2022/01/19 00:04:54;;;;;;;8.77;4.30;;;;;4.60;97839.00;;;;8393738;28;20313;-77
2022/01/19 00:08:57;;;;;;;6.87;4.00;;;;;4.60;97823.00;;;;8397132;28;20257;-79
2022/01/19 00:13:01;;;;;;;7.13;3.63;;;;;4.60;97809.00;;;;8396346;28;20230;-77
2022/01/19 00:17:04;;;;;;;12.00;4.63;;;;;4.60;97801.00;;;;8397631;28;20640;-77
2022/01/19 00:21:09;;;;;;;8.23;3.93;;;;;4.60;97789.00;;;;8401104;28;20235;-77
2022/01/19 00:25:12;;;;;;;11.93;4.60;;;;;4.60;97792.00;;;;8398558;28;20287;-79
2022/01/19 00:29:15;;;;;;;10.57;4.60;;;;;4.60;97777.00;;;;8398542;28;20247;-76
2022/01/19 00:33:19;;;;;;;10.37;4.53;;;;;4.60;97776.00;;;;8393392;28;20822;-80
2022/01/19 00:37:24;;;;;;;7.67;4.80;;;;;4.60;97777.00;;;;8401281;28;20250;-79
2022/01/19 00:41:27;;;;;;;10.40;4.50;;;;;4.50;97769.00;;;;8399032;28;20303;-79
2022/01/19 00:45:31;;;;;;;6.80;4.07;;;;;4.50;97753.00;;;;8391915;28;20256;-80
2022/01/19 00:49:49;;;;;;;8.77;4.93;;;;;4.40;97757.00;;;;8391002;28;20254;-78
2022/01/19 00:53:53;;;;;;;9.30;4.40;;;;;4.30;97751.00;;;;8393167;28;20326;-79
2022/01/19 00:57:57;;;;;;;8.30;4.30;;;;;4.30;97727.00;;;;8393556;28;20809;-79
2022/01/19 01:02:00;;;;;;;7.97;4.70;;;;;4.20;97733.00;;;;8404931;28;20239;-80
2022/01/19 01:06:03;;;;;;;8.80;4.53;;;;;4.10;97732.00;;;;8395016;28;20231;-80
2022/01/19 01:10:10;;;;;;;10.40;4.63;;;;;4.10;97714.00;;;;8396555;28;20240;-79
2022/01/19 01:18:35;;;;;;;11.87;4.87;;;;;3.90;97723.00;;;;8391960;28;20228;-79
2022/01/19 01:22:40;;;;;;;8.10;4.63;;;;;3.90;97709.00;;;;8394430;28;20705;-80
2022/01/19 01:26:45;;;;;;;7.90;4.70;;;;;3.90;97698.00;;;;8393607;28;20238;-78
2022/01/19 01:30:50;;;;;;;11.27;4.47;;;;;3.90;97679.00;;;;8403898;28;20310;-80
2022/01/19 01:34:54;;;;;;;11.63;4.70;;;;;3.80;97659.00;;;;8395166;28;20278;-79
2022/01/19 01:38:57;;;;;;;10.47;5.17;;;;;3.80;97653.00;;;;8398511;28;20747;-79
2022/01/19 01:43:04;;;;;;;11.47;4.53;;;;;3.70;97657.00;;;;8396292;28;20242;-75
2022/01/19 01:47:08;;;;;;;9.33;4.23;;;;;3.60;97668.00;;;;8398408;28;20404;-79
2022/01/19 01:55:32;;;;;;;11.07;5.63;;;;;3.40;97663.00;;;;8390320;28;20751;-79
2022/01/19 01:59:37;;;;;;;9.70;4.80;;;;;3.30;97640.00;;;;8411483;28;20249;-77
2022/01/19 02:03:42;;;;;;;13.10;5.07;;;;;3.20;97622.00;;;;8394051;28;20698;-78
2022/01/19 02:08:00;;;;;;;11.03;4.87;;;;;3.00;97613.00;;;;8406154;28;20679;-78
2022/01/19 02:16:30;;;;;;;12.40;5.23;;;;;2.90;97593.00;;;;8397886;28;20316;-77
2022/01/19 02:24:56;;;;;;;14.47;5.13;;;;;2.80;97588.00;;;;8400842;28;20651;-75
2022/01/19 02:29:13;;;;;;;8.80;4.47;;;;;2.80;97574.00;;;;8405607;28;20648;-82
2022/01/19 02:42:02;;;;;;;11.33;4.60;;;;;2.80;97566.00;;;;8400151;28;20315;-77
2022/01/19 02:50:32;;;;;;;11.50;4.50;;;;;2.70;97542.00;;;;8397935;28;20253;-77
2022/01/19 02:54:37;;;;;;;9.53;4.93;;;;;2.60;97538.00;;;;8406848;28;20288;-78
2022/01/19 02:58:46;;;;;;;7.27;4.53;;;;;2.50;97527.00;;;;8405309;28;20342;-77
2022/01/19 03:11:32;;;;;;;11.60;5.53;;;;;2.10;97522.00;;;;8412237;28;20256;-74
2022/01/19 03:15:35;;;;;;;11.00;5.43;;;;;2.10;97509.00;;;;8417703;28;20639;-73
2022/01/19 03:19:38;;;;;;;13.77;5.23;;;;;2.00;97503.00;;;;8417412;28;20260;-72
2022/01/19 03:23:42;;;;;;;11.10;5.67;;;;;1.90;97511.00;;;;8418444;28;20688;-75
2022/01/19 03:27:47;;;;;;;17.33;7.07;;;;;1.90;97504.00;;;;8414758;28;20259;-75
2022/01/19 03:31:51;;;;;;;13.80;5.47;;;;;1.80;97512.00;;;;8416721;28;20241;-75
2022/01/19 03:35:54;;;;;;;13.07;5.80;;;;;1.90;97500.00;;;;8415137;28;20681;-76
2022/01/19 03:39:58;;;;;;;13.47;6.33;;;;;1.90;97509.00;;;;8423580;28;21041;-75
2022/01/19 03:44:02;;;;;;;12.53;5.83;;;;;1.90;97498.00;;;;8414605;28;20248;-75
2022/01/19 03:48:17;;;;;;;10.60;5.80;;;;;1.90;97494.00;;;;8415393;28;20232;-74
2022/01/19 03:52:21;;;;;;;15.80;6.50;;;;;1.90;97486.00;;;;8415701;28;20215;-74
2022/01/19 03:56:25;;;;;;;18.67;6.43;;;;;1.90;97495.00;;;;8416488;28;20847;-73
2022/01/19 04:00:33;;;;;;;15.53;6.07;;;;;1.90;97482.00;;;;8408504;28;20902;-73
2022/01/19 04:04:43;;;;;;;11.10;5.63;;;;;1.90;97484.00;;;;8375561;28;20356;-73
2022/01/19 04:09:06;;;;;;;11.07;5.80;;;;;1.80;97481.00;;;;8375620;28;20238;-72
2022/01/19 04:13:22;;;;;;;15.10;6.13;;;;;1.80;97477.00;;;;8390364;28;20236;-72
2022/01/19 04:17:27;;;;;;;14.63;6.30;;;;;1.70;97468.00;;;;8396086;28;20272;-73
2022/01/19 04:21:30;;;;;;;11.07;6.53;;;;;1.60;97463.00;;;;8374433;28;20341;-73
2022/01/19 04:25:33;;;;;;;25.63;7.40;;;;;1.50;97456.00;;;;8377441;28;20254;-73
2022/01/19 04:29:37;;;;;;;11.60;6.70;;;;;1.50;97455.00;;;;8371039;28;20230;-72
2022/01/19 04:33:44;;;;;;;17.17;6.93;;;;;1.50;97463.00;;;;8373834;28;20617;-72
2022/01/19 04:38:41;;;;;;;13.17;6.10;;;;;1.40;97477.00;;;;8380472;28;20353;-73
2022/01/19 04:47:29;;;;;;;15.97;7.00;;;;;1.30;97468.00;;;;8395790;28;20650;-72
2022/01/19 05:04:52;;;;;;;14.87;6.67;;;;;1.20;97464.00;;;;8357018;28;20238;-70
2022/01/19 05:09:05;;;;;;;13.67;7.03;;;;;1.10;97464.00;;;;8362936;28;20252;-71
2022/01/19 05:13:33;;;;;;;15.60;7.23;;;;;1.10;97458.00;;;;8370372;28;20253;-70
2022/01/19 05:17:37;;;;;;;14.93;6.83;;;;;1.20;97454.00;;;;8369925;28;20264;-71
2022/01/19 05:21:40;;;;;;;14.37;6.63;;;;;1.20;97450.00;;;;8373782;28;21056;-71
2022/01/19 05:25:45;;;;;;;15.50;7.33;;;;;1.20;97452.00;;;;8374284;28;20269;-70
2022/01/19 05:29:49;;;;;;;17.07;7.10;;;;;1.20;97448.00;;;;8369317;28;20315;-70
2022/01/19 05:33:52;;;;;;;12.83;6.00;;;;;1.10;97443.00;;;;8368509;28;20230;-71
2022/01/19 05:37:55;;;;;;;12.73;6.53;;;;;1.00;97449.00;;;;8374673;28;20314;-71
2022/01/19 05:42:00;;;;;;;18.73;7.00;;;;;0.80;97442.00;;;;8362051;28;20308;-71
2022/01/19 05:46:03;;;;;;;14.03;6.77;;;;;0.70;97435.00;;;;8366249;28;20713;-71
2022/01/19 05:50:07;;;;;;;16.90;6.60;;;;;0.70;97433.00;;;;8356862;28;20308;-71
2022/01/19 05:54:11;;;;;;;16.23;7.50;;;;;0.60;97438.00;;;;8365686;28;20226;-70
2022/01/19 05:58:15;;;;;;;10.30;6.17;;;;;0.50;97432.00;;;;8369784;28;20766;-71
2022/01/19 06:02:19;;;;;;;18.00;7.50;;;;;0.40;97441.00;;;;8375501;28;20239;-70
2022/01/19 06:06:22;;;;;;;17.47;7.70;;;;;0.40;97430.00;;;;8369275;28;20320;-70
2022/01/19 06:10:43;;;;;;;21.40;8.20;;;;;0.40;97404.00;;;;8370248;28;20244;-69
2022/01/19 06:14:48;;;;;;;17.70;8.40;;;;;0.40;97404.00;;;;8369023;28;20315;-69
2022/01/19 06:18:51;;;;;;;19.43;7.67;;;;;0.30;97402.00;;;;8371496;28;20232;-69
2022/01/19 06:22:54;;;;;;;20.37;8.33;;;;;0.20;97390.00;;;;8377488;28;20332;-68
2022/01/19 06:26:57;;;;;;;23.17;8.90;;;;;0.10;97388.00;;;;8362832;28;20319;-68
2022/01/19 06:31:02;;;;;;;23.30;9.07;;;;;0.00;97393.00;;;;8362325;28;20307;-69
2022/01/19 06:35:07;;;;;;;21.20;8.17;;;;;0.00;97394.00;;;;8365133;28;20286;-68
2022/01/19 06:39:10;;;;;;;19.30;8.43;;;;;-0.10;97374.00;;;;8373269;28;20248;-68
2022/01/19 06:43:13;;;;;;;18.17;8.40;;;;;-0.10;97367.00;;;;8375588;28;20351;-68
2022/01/19 06:47:18;;;;;;;25.57;9.33;;;;;-0.10;97356.00;;;;8380557;28;20253;-67
2022/01/19 06:51:43;;;;;;;24.80;9.07;;;;;-0.10;97353.00;;;;8354724;28;20254;-69
2022/01/19 06:55:46;;;;;;;18.10;9.33;;;;;-0.10;97349.00;;;;8379959;28;20243;-68
2022/01/19 06:59:51;;;;;;;22.97;9.30;;;;;-0.10;97347.00;;;;8376255;28;20243;-68
2022/01/19 07:03:55;;;;;;;22.43;9.67;;;;;-0.10;97335.00;;;;8379186;28;20243;-69
2022/01/19 07:07:59;;;;;;;27.73;10.77;;;;;-0.20;97333.00;;;;8373108;28;20232;-68
2022/01/19 07:12:02;;;;;;;24.47;9.57;;;;;-0.20;97334.00;;;;8377202;28;20254;-69
2022/01/19 07:16:05;;;;;;;19.80;9.70;;;;;-0.20;97336.00;;;;8371912;28;20312;-68
2022/01/19 07:20:11;;;;;;;18.60;10.20;;;;;-0.10;97332.00;;;;8379467;28;20224;-68
2022/01/19 07:24:14;;;;;;;19.50;9.70;;;;;0.00;97318.00;;;;8376782;28;20647;-68
2022/01/19 07:28:18;;;;;;;19.87;9.20;;;;;0.00;97319.00;;;;8380107;28;20248;-69
2022/01/19 07:32:22;;;;;;;22.47;10.00;;;;;0.10;97299.00;;;;8380829;28;20322;-69
2022/01/19 07:36:29;;;;;;;18.17;8.57;;;;;0.10;97302.00;;;;8377044;28;20310;-69
2022/01/19 07:40:32;;;;;;;20.13;8.80;;;;;0.20;97283.00;;;;8375412;28;20259;-69
2022/01/19 07:44:35;;;;;;;18.93;8.67;;;;;0.30;97261.00;;;;8376994;28;20252;-69
2022/01/19 07:48:38;;;;;;;22.57;8.40;;;;;0.50;97256.00;;;;8376995;28;20331;-70
2022/01/19 07:52:45;;;;;;;15.77;8.70;;;;;0.60;97255.00;;;;8374504;28;20236;-70
2022/01/19 07:56:48;;;;;;;18.23;8.07;;;;;0.70;97252.00;;;;8375362;28;20313;-70
2022/01/19 08:00:52;;;;;;;15.83;7.40;;;;;0.90;97240.00;;;;8358225;28;20615;-70
2022/01/19 08:04:55;;;;;;;18.30;7.20;;;;;1.00;97234.00;;;;8383564;28;20311;-70
2022/01/19 08:09:00;;;;;;;21.13;7.53;;;;;1.10;97241.00;;;;8377458;28;20258;-70
2022/01/19 08:13:05;;;;;;;20.37;6.80;;;;;1.20;97242.00;;;;8377337;28;20251;-72
2022/01/19 08:17:08;;;;;;;13.30;6.47;;;;;1.30;97241.00;;;;8370263;28;20345;-71
2022/01/19 08:21:11;;;;;;;15.00;6.57;;;;;1.30;97229.00;;;;8376397;28;20234;-71
2022/01/19 08:25:16;;;;;;;18.17;6.77;;;;;1.40;97237.00;;;;8376011;28;20232;-71
2022/01/19 08:29:20;;;;;;;21.80;8.20;;;;;1.50;97248.00;;;;8376231;28;20250;-71
2022/01/19 08:33:23;;;;;;;16.57;6.63;;;;;1.60;97242.00;;;;8367707;28;20358;-71
2022/01/19 08:37:26;;;;;;;12.10;6.27;;;;;1.70;97256.00;;;;8374868;28;20323;-72
2022/01/19 08:41:31;;;;;;;17.80;6.97;;;;;1.80;97245.00;;;;8374544;28;20258;-74
2022/01/19 08:45:35;;;;;;;15.00;6.53;;;;;2.00;97255.00;;;;8371851;28;20357;-72
2022/01/19 08:49:38;;;;;;;20.83;6.80;;;;;2.00;97247.00;;;;8370126;28;20265;-72
2022/01/19 08:53:42;;;;;;;16.53;7.03;;;;;2.10;97246.00;;;;8375546;28;20325;-72
2022/01/19 08:57:47;;;;;;;14.43;5.30;;;;;2.10;97244.00;;;;8374179;28;20722;-72
2022/01/19 09:01:51;;;;;;;12.60;5.63;;;;;2.20;97227.00;;;;8369306;28;20280;-72
2022/01/19 09:05:54;;;;;;;16.40;5.90;;;;;2.20;97227.00;;;;8376083;28;20295;-72
2022/01/19 09:09:58;;;;;;;19.87;6.13;;;;;2.30;97226.00;;;;8376732;28;20313;-72
2022/01/19 09:14:06;;;;;;;15.33;5.47;;;;;2.40;97231.00;;;;8370659;28;20225;-73
2022/01/19 09:18:10;;;;;;;12.80;4.93;;;;;2.50;97218.00;;;;8365747;28;20321;-73
2022/01/19 09:22:13;;;;;;;14.87;5.87;;;;;2.60;97211.00;;;;8371450;28;20256;-72
2022/01/19 09:26:17;;;;;;;13.07;5.30;;;;;2.60;97204.00;;;;8365766;28;20234;-72
2022/01/19 09:30:24;;;;;;;15.57;6.17;;;;;2.60;97208.00;;;;8371839;28;20253;-75
2022/01/19 09:34:27;;;;;;;19.93;5.73;;;;;2.70;97210.00;;;;8366328;28;20248;-73
2022/01/19 09:38:32;;;;;;;14.83;5.23;;;;;2.80;97205.00;;;;8368732;28;20317;-73
2022/01/19 09:42:36;;;;;;;12.73;6.07;;;;;3.10;97200.00;;;;8359956;28;20242;-72
2022/01/19 09:46:41;;;;;;;15.63;6.17;;;;;3.40;97189.00;;;;8359645;28;20258;-73
2022/01/19 09:50:44;;;;;;;14.80;5.70;;;;;3.60;97183.00;;;;8353721;28;21081;-72
2022/01/19 09:54:47;;;;;;;17.03;6.37;;;;;3.70;97185.00;;;;8364610;28;20235;-73
2022/01/19 09:58:51;;;;;;;14.03;6.50;;;;;3.60;97174.00;;;;8367155;28;20985;-73
2022/01/19 10:03:16;;;;;;;18.07;7.67;;;;;3.30;97178.00;;;;8373131;28;20250;-72
2022/01/19 10:07:20;;;;;;;19.90;6.73;;;;;3.40;97176.00;;;;8372802;28;20318;-73
2022/01/19 10:16:58;;;;;;;17.60;7.40;;;;;3.20;97174.00;;;;8352904;28;20871;-72
2022/01/19 10:20:25;;;;;;;24.33;9.80;;;;;3.00;97180.00;;;;8368681;28;20334;-72
2022/01/19 10:24:39;;;;;;;20.57;9.13;;;;;3.20;97166.00;;;;8375719;28;20688;-72
2022/01/19 10:29:00;;;;;;;31.57;10.07;;;;;3.30;97166.00;;;;8369237;28;20255;-73
2022/01/19 10:33:03;;;;;;;21.47;8.60;;;;;3.10;97154.00;;;;8362141;28;20685;-73
2022/01/19 10:37:08;;;;;;;21.97;10.17;;;;;3.00;97147.00;;;;8378408;28;20253;-75
2022/01/19 10:41:12;;;;;;;27.43;8.43;;;;;3.00;97130.00;;;;8372805;28;20257;-74
2022/01/19 10:45:17;;;;;;;24.60;10.27;;;;;3.10;97117.00;;;;8366586;28;20262;-71
2022/01/19 10:49:20;;;;;;;26.33;9.57;;;;;3.20;97109.00;;;;8373618;28;20704;-71
2022/01/19 10:53:25;;;;;;;23.67;9.90;;;;;3.20;97111.00;;;;8385807;28;20231;-71
2022/01/19 10:57:30;;;;;;;28.33;10.87;;;;;3.20;97105.00;;;;8384492;28;20963;-73
2022/01/19 11:01:41;;;;;;;30.93;10.77;;;;;3.30;97104.00;;;;8360929;28;20230;-73
2022/01/19 11:05:47;;;;;;;30.43;11.67;;;;;3.30;97088.00;;;;8373575;28;20239;-73
2022/01/19 11:10:00;;;;;;;31.10;12.07;;;;;3.30;97083.00;;;;8382718;28;20281;-73
2022/01/19 11:14:04;;;;;;;43.83;19.63;;;;;3.20;97083.00;;;;8381748;28;20232;-73
2022/01/19 11:18:07;;;;;;;888.93;418.63;;;;;3.20;97072.00;;;;8383184;28;20952;-72
2022/01/19 11:22:26;;;;;;;1099.77;519.87;;;;;3.10;97054.00;;;;8380871;28;20308;-76
2022/01/19 11:26:32;;;;;;;374.97;154.90;;;;;3.10;97054.00;;;;8392035;28;20243;-76
2022/01/19 11:30:47;;;;;;;138.30;43.93;;;;;3.00;97040.00;;;;8392100;28;20314;-74
2022/01/19 11:34:54;;;;;;;59.93;19.47;;;;;2.70;97038.00;;;;8386648;28;20313;-75
2022/01/19 11:39:05;;;;;;;58.90;20.03;;;;;2.70;97033.00;;;;8387251;28;20747;-74
2022/01/19 11:43:23;;;;;;;48.20;15.60;;;;;2.60;97040.00;;;;8383540;28;20279;-73
2022/01/19 11:47:31;;;;;;;37.57;13.87;;;;;2.60;97025.00;;;;8389380;28;20253;-74
2022/01/19 11:51:36;;;;;;;55.00;17.83;;;;;2.60;97024.00;;;;8391040;28;20832;-74
2022/01/19 11:55:40;;;;;;;54.57;16.67;;;;;2.50;97014.00;;;;8395231;28;20261;-74
2022/01/19 12:00:11;;;;;;;52.03;16.87;;;;;2.50;97011.00;;;;8391277;28;20240;-74
2022/01/19 12:04:16;;;;;;;46.53;15.63;;;;;2.50;97003.00;;;;8361495;28;20254;-73
2022/01/19 12:08:28;;;;;;;46.77;15.77;;;;;2.50;96986.00;;;;8379551;28;20667;-73
2022/01/19 12:12:38;;;;;;;44.27;17.30;;;;;2.60;96984.00;;;;8376796;28;20268;-71
2022/01/19 12:16:54;;;;;;;42.60;16.30;;;;;2.70;96968.00;;;;8364822;28;20262;-74
2022/01/19 12:20:58;;;;;;;60.53;27.57;;;;;2.80;96967.00;;;;8373139;28;20281;-74
2022/01/19 12:25:06;;;;;;;43.40;18.53;;;;;2.90;96943.00;;;;8371609;28;20317;-74
2022/01/19 12:29:09;;;;;;;41.40;17.40;;;;;3.00;96947.00;;;;8380521;28;20227;-73
2022/01/19 12:33:14;;;;;;;43.70;17.50;;;;;3.20;96938.00;;;;8394211;28;20319;-73
2022/01/19 12:37:37;;;;;;;40.17;17.60;;;;;3.30;96929.00;;;;8388655;28;20226;-73
2022/01/19 12:41:55;;;;;;;36.60;16.17;;;;;3.40;96921.00;;;;8383607;28;20246;-73
2022/01/19 12:45:59;;;;;;;44.90;18.33;;;;;3.50;96926.00;;;;8386561;28;20237;-73
2022/01/19 12:50:44;;;;;;;36.97;15.73;;;;;3.60;96926.00;;;;8387858;28;20318;-73
2022/01/19 12:54:50;;;;;;;36.97;16.33;;;;;3.80;96897.00;;;;8351518;28;20253;-82
2022/01/19 12:59:03;;;;;;;36.70;16.37;;;;;3.80;96888.00;;;;8387058;28;20242;-83
2022/01/19 13:03:15;;;;;;;30.00;15.57;;;;;3.90;96878.00;;;;8392906;28;20227;-81
2022/01/19 13:07:21;;;;;;;31.93;15.63;;;;;4.00;96873.00;;;;8388843;28;20683;-81
2022/01/19 13:11:34;;;;;;;34.93;15.67;;;;;4.10;96870.00;;;;8388192;28;20770;-80
2022/01/19 13:15:43;;;;;;;26.30;14.03;;;;;4.20;96855.00;;;;8387562;28;20313;-87
2022/01/19 13:19:46;;;;;;;24.37;13.00;;;;;4.20;96863.00;;;;8394824;28;20276;-84
2022/01/19 13:24:00;;;;;;;24.73;13.17;;;;;4.30;96848.00;;;;8391107;28;20249;-85
2022/01/19 13:28:05;;;;;;;24.67;13.07;;;;;4.30;96856.00;;;;8387550;28;20239;-84
2022/01/19 13:32:13;;;;;;;27.70;13.10;;;;;4.20;96846.00;;;;8394222;28;20237;-88
2022/01/19 13:36:16;;;;;;;29.70;13.30;;;;;4.30;96853.00;;;;8389907;28;21457;-85
2022/01/19 13:40:21;;;;;;;21.80;13.03;;;;;4.30;96846.00;;;;8396117;28;20250;-80
2022/01/19 13:44:33;;;;;;;22.97;12.27;;;;;4.20;96849.00;;;;8388311;28;20685;-85
2022/01/19 13:48:40;;;;;;;23.50;13.13;;;;;4.30;96855.00;;;;8389503;28;20234;-83
2022/01/19 13:52:43;;;;;;;22.90;12.33;;;;;4.20;96863.00;;;;8391792;28;20245;-84
2022/01/19 13:56:46;;;;;;;23.90;12.00;;;;;4.20;96861.00;;;;8386720;28;20309;-82
2022/01/19 14:00:53;;;;;;;25.17;12.50;;;;;4.30;96861.00;;;;8398713;28;20241;-78
2022/01/19 14:04:58;;;;;;;21.23;12.13;;;;;4.40;96866.00;;;;8394556;28;20284;-79
2022/01/19 14:09:09;;;;;;;21.67;13.10;;;;;4.50;96863.00;;;;8392979;28;20248;-80
2022/01/19 14:13:27;;;;;;;20.43;12.10;;;;;4.60;96864.00;;;;8383528;28;20249;-77
2022/01/19 14:17:36;;;;;;;19.77;11.40;;;;;4.70;96854.00;;;;8393227;28;20247;-77
2022/01/19 14:22:09;;;;;;;27.67;12.43;;;;;4.50;96852.00;;;;8384043;28;20231;-78
2022/01/19 14:26:13;;;;;;;21.50;11.47;;;;;4.40;96850.00;;;;8385438;28;20219;-77
2022/01/19 14:30:20;;;;;;;24.67;12.93;;;;;4.20;96837.00;;;;8386915;28;21617;-78
2022/01/19 14:34:37;;;;;;;23.70;12.27;;;;;4.00;96840.00;;;;8386840;28;20798;-79
2022/01/19 14:38:41;;;;;;;23.33;12.37;;;;;4.00;96838.00;;;;8391535;28;20238;-79
2022/01/19 14:42:51;;;;;;;20.57;11.83;;;;;4.00;96825.00;;;;8384988;28;20342;-80
2022/01/19 14:47:05;;;;;;;23.57;12.57;;;;;4.10;96816.00;;;;8389470;28;20655;-79
2022/01/19 14:51:27;;;;;;;24.90;11.90;;;;;4.20;96818.00;;;;8394225;28;21111;-78
2022/01/19 14:55:38;;;;;;;22.37;12.00;;;;;4.30;96810.00;;;;8392705;28;20375;-78
2022/01/19 15:00:03;;;;;;;25.63;12.70;;;;;4.30;96811.00;;;;8392618;28;20227;-79
2022/01/19 15:04:08;;;;;;;25.97;12.23;;;;;4.30;96814.00;;;;8389093;28;20219;-78
2022/01/19 15:08:12;;;;;;;23.73;13.17;;;;;4.30;96809.00;;;;8392826;28;20234;-80
2022/01/19 15:12:16;;;;;;;24.97;13.03;;;;;4.30;96820.00;;;;8394066;28;20250;-74
2022/01/19 15:16:24;;;;;;;26.83;13.27;;;;;4.30;96812.00;;;;8392072;28;20984;-75
2022/01/19 15:20:29;;;;;;;25.03;12.80;;;;;4.20;96809.00;;;;8396044;28;20240;-75
2022/01/19 15:24:34;;;;;;;32.53;14.63;;;;;4.20;96813.00;;;;8395770;28;20702;-75
2022/01/19 15:28:38;;;;;;;27.60;13.73;;;;;4.20;96813.00;;;;8395425;28;20234;-75
2022/01/19 15:32:43;;;;;;;26.63;13.07;;;;;4.20;96810.00;;;;8388008;28;20227;-75
2022/01/19 15:36:47;;;;;;;34.83;18.30;;;;;4.20;96805.00;;;;8390905;28;20622;-75
2022/01/19 15:40:51;;;;;;;26.60;12.50;;;;;4.20;96808.00;;;;8388302;28;20227;-75
2022/01/19 15:44:54;;;;;;;27.77;14.23;;;;;4.10;96795.00;;;;8386134;28;20306;-76
2022/01/19 15:48:58;;;;;;;26.97;13.67;;;;;4.00;96788.00;;;;8390379;28;20230;-76
2022/01/19 15:53:01;;;;;;;38.23;22.27;;;;;3.80;96784.00;;;;8389650;28;20234;-76
2022/01/19 15:57:06;;;;;;;32.70;19.70;;;;;3.60;96785.00;;;;8386846;28;20626;-76
2022/01/19 16:01:09;;;;;;;30.80;16.03;;;;;3.40;96776.00;;;;8385820;28;20275;-77
2022/01/19 16:05:13;;;;;;;28.27;14.73;;;;;3.30;96774.00;;;;8381828;28;20756;-76
2022/01/19 16:09:17;;;;;;;35.93;17.30;;;;;3.10;96762.00;;;;8385655;28;20780;-76
2022/01/19 16:13:23;;;;;;;29.40;14.23;;;;;3.10;96760.00;;;;8389066;28;20232;-75
2022/01/19 16:17:26;;;;;;;29.07;15.83;;;;;3.10;96761.00;;;;8393630;28;20238;-75
2022/01/19 16:21:29;;;;;;;29.43;15.53;;;;;3.20;96766.00;;;;8393739;28;20271;-75
2022/01/19 16:29:59;;;;;;;294.53;203.13;;;;;3.30;96754.00;;;;8397609;28;20254;-74
2022/01/19 16:34:11;;;;;;;1111.53;576.67;;;;;3.40;96749.00;;;;8393145;28;20234;-75
2022/01/19 16:38:15;;;;;;;469.07;267.20;;;;;3.50;96748.00;;;;8390698;28;20314;-74
2022/01/19 16:42:19;;;;;;;295.10;174.83;;;;;3.60;96743.00;;;;8388425;28;20242;-75
2022/01/19 16:46:24;;;;;;;44.80;28.27;;;;;3.70;96744.00;;;;8386666;28;20554;-74
2022/01/19 16:50:29;;;;;;;56.33;38.97;;;;;3.70;96739.00;;;;8377821;28;20241;-76
2022/01/19 16:54:32;;;;;;;35.37;19.43;;;;;3.80;96726.00;;;;8377484;28;20366;-76
2022/01/19 16:58:39;;;;;;;41.00;24.10;;;;;3.80;96720.00;;;;8374339;28;20329;-76
2022/01/19 17:02:44;;;;;;;37.93;20.77;;;;;3.80;96719.00;;;;8372290;28;20250;-76
2022/01/19 17:06:49;;;;;;;40.30;21.33;;;;;3.80;96711.00;;;;8376517;28;20238;-73
2022/01/19 17:10:56;;;;;;;32.47;18.67;;;;;3.80;96710.00;;;;8376162;28;20256;-77
2022/01/19 17:15:14;;;;;;;33.20;15.37;;;;;3.80;96714.00;;;;8373697;28;20936;-76
2022/01/19 17:19:20;;;;;;;43.90;25.27;;;;;3.90;96704.00;;;;8364324;28;20743;-78
2022/01/19 17:23:23;;;;;;;42.57;21.30;;;;;3.90;96706.00;;;;8378710;28;20944;-78
2022/01/19 17:27:27;;;;;;;27.77;14.33;;;;;3.90;96700.00;;;;8376366;28;20250;-77
2022/01/19 17:31:31;;;;;;;29.10;15.97;;;;;3.90;96708.00;;;;8377276;28;20941;-77
2022/01/19 17:35:37;;;;;;;24.97;14.20;;;;;4.00;96699.00;;;;8378270;28;20238;-78
2022/01/19 17:39:40;;;;;;;21.57;12.03;;;;;4.00;96694.00;;;;8369259;28;20273;-75
2022/01/19 17:43:44;;;;;;;25.93;12.53;;;;;4.10;96690.00;;;;8381067;28;20255;-76
2022/01/19 17:47:53;;;;;;;24.20;12.07;;;;;4.10;96695.00;;;;8374665;28;20665;-76
2022/01/19 17:52:04;;;;;;;20.57;10.80;;;;;4.20;96691.00;;;;8381880;28;20237;-76
2022/01/19 17:56:07;;;;;;;18.33;8.97;;;;;4.30;96699.00;;;;8383776;28;20235;-75
2022/01/19 18:00:18;;;;;;;75.13;37.47;;;;;4.40;96692.00;;;;8387544;28;20235;-77
2022/01/19 18:04:22;;;;;;;22.23;13.37;;;;;4.50;96685.00;;;;8383605;28;20223;-77
2022/01/19 18:08:27;;;;;;;14.73;9.17;;;;;4.60;96684.00;;;;8385775;28;20888;-76
2022/01/19 18:12:30;;;;;;;16.03;8.60;;;;;4.60;96674.00;;;;8385289;28;20702;-77
2022/01/19 18:16:38;;;;;;;13.87;7.43;;;;;4.70;96675.00;;;;8378117;28;21030;-79
2022/01/19 18:20:41;;;;;;;11.43;7.80;;;;;4.70;96663.00;;;;8387508;28;20321;-79
2022/01/19 18:24:46;;;;;;;16.97;8.43;;;;;4.70;96669.00;;;;8393327;28;20894;-79
2022/01/19 18:28:50;;;;;;;17.50;8.70;;;;;4.80;96671.00;;;;8389791;28;20264;-77
2022/01/19 18:32:53;;;;;;;13.57;7.57;;;;;4.80;96666.00;;;;8386182;28;21095;-79
2022/01/19 18:36:57;;;;;;;14.73;9.07;;;;;4.80;96661.00;;;;8388534;28;20231;-80
2022/01/19 18:41:04;;;;;;;16.33;8.50;;;;;4.90;96669.00;;;;8394338;28;20861;-83
2022/01/19 18:45:08;;;;;;;12.90;7.67;;;;;4.90;96660.00;;;;8391727;28;20342;-79
2022/01/19 18:49:11;;;;;;;17.03;12.07;;;;;4.90;96655.00;;;;8389583;28;20228;-77
2022/01/19 18:53:14;;;;;;;15.97;8.50;;;;;4.90;96669.00;;;;8385838;28;20711;-79
2022/01/19 18:57:20;;;;;;;16.47;8.43;;;;;4.90;96663.00;;;;8393123;28;20955;-80
2022/01/19 19:01:24;;;;;;;14.97;9.00;;;;;4.90;96654.00;;;;8392466;28;20640;-78
2022/01/19 19:05:29;;;;;;;12.17;7.43;;;;;4.90;96664.00;;;;8393556;28;20296;-81
2022/01/19 19:09:35;;;;;;;18.10;9.00;;;;;4.90;96657.00;;;;8396143;28;20247;-78
2022/01/19 19:13:40;;;;;;;12.63;8.37;;;;;4.90;96660.00;;;;8391479;28;20829;-75
2022/01/19 19:17:45;;;;;;;13.87;7.93;;;;;4.90;96649.00;;;;8390483;28;20247;-75
2022/01/19 19:21:48;;;;;;;12.23;7.90;;;;;5.00;96660.00;;;;8388592;28;20905;-79
2022/01/19 19:25:51;;;;;;;12.63;7.03;;;;;4.90;96653.00;;;;8388641;28;20227;-80
2022/01/19 19:29:56;;;;;;;12.27;7.00;;;;;5.00;96655.00;;;;8391332;28;20673;-80
2022/01/19 19:34:01;;;;;;;11.77;7.20;;;;;5.00;96664.00;;;;8391227;28;20277;-80
2022/01/19 19:38:05;;;;;;;12.93;6.93;;;;;5.00;96656.00;;;;8391212;28;20223;-80
2022/01/19 19:42:11;;;;;;;11.50;6.53;;;;;5.00;96665.00;;;;8392754;28;20235;-78
2022/01/19 19:46:16;;;;;;;10.73;6.00;;;;;5.00;96647.00;;;;8388971;28;20234;-80
2022/01/19 19:50:24;;;;;;;12.33;7.10;;;;;5.00;96658.00;;;;8389824;28;20246;-82
2022/01/19 19:54:27;;;;;;;12.70;6.83;;;;;5.00;96651.00;;;;8389864;28;20754;-77
2022/01/19 19:58:31;;;;;;;11.53;6.03;;;;;5.00;96645.00;;;;8389784;28;20231;-79
2022/01/19 20:02:35;;;;;;;12.27;6.47;;;;;5.00;96645.00;;;;8388204;28;20247;-77
2022/01/19 20:06:39;;;;;;;11.83;6.70;;;;;5.00;96650.00;;;;8396000;28;20231;-78
2022/01/19 20:10:49;;;;;;;11.37;6.90;;;;;5.00;96635.00;;;;8387751;28;20244;-78
2022/01/19 20:14:58;;;;;;;12.43;6.07;;;;;5.00;96634.00;;;;8371587;28;20235;-78
2022/01/19 20:19:03;;;;;;;8.97;5.77;;;;;5.00;96627.00;;;;8385853;28;20224;-77
2022/01/19 20:23:07;;;;;;;15.33;6.63;;;;;5.00;96619.00;;;;8390488;28;20254;-74
2022/01/19 20:27:10;;;;;;;8.73;5.93;;;;;5.00;96608.00;;;;8386807;28;20230;-76
2022/01/19 20:31:16;;;;;;;8.07;5.53;;;;;5.00;96612.00;;;;8390521;28;20223;-79
2022/01/19 20:35:21;;;;;;;7.73;4.70;;;;;5.00;96607.00;;;;8389029;28;20224;-80
2022/01/19 20:39:24;;;;;;;10.83;6.27;;;;;5.00;96605.00;;;;8385767;28;20230;-76
2022/01/19 20:43:29;;;;;;;12.00;6.30;;;;;5.00;96621.00;;;;8386336;28;20251;-83
2022/01/19 20:47:32;;;;;;;9.13;5.97;;;;;5.00;96620.00;;;;8391032;28;20689;-80
2022/01/19 20:51:37;;;;;;;11.83;6.63;;;;;5.00;96611.00;;;;8390646;28;20323;-78
2022/01/19 20:55:42;;;;;;;11.07;5.97;;;;;5.00;96622.00;;;;8384520;28;20274;-81
2022/01/19 20:59:45;;;;;;;12.20;6.23;;;;;5.00;96618.00;;;;8390016;28;20273;-79
2022/01/19 21:03:48;;;;;;;13.47;6.60;;;;;5.00;96611.00;;;;8377023;28;20282;-79
2022/01/19 21:07:53;;;;;;;8.47;5.77;;;;;5.00;96613.00;;;;8378026;28;20309;-81
2022/01/19 21:11:56;;;;;;;9.80;6.10;;;;;5.00;96625.00;;;;8382224;28;20315;-82
2022/01/19 21:16:00;;;;;;;11.87;5.97;;;;;5.00;96626.00;;;;8378971;28;21029;-78
2022/01/19 21:20:05;;;;;;;9.70;6.43;;;;;5.00;96634.00;;;;8379321;28;20219;-77
2022/01/19 21:24:12;;;;;;;8.77;5.67;;;;;5.00;96635.00;;;;8379765;28;20235;-81
2022/01/19 21:28:16;;;;;;;10.57;5.87;;;;;5.00;96628.00;;;;8378803;28;20741;-81
2022/01/19 21:32:20;;;;;;;6.97;4.60;;;;;5.00;96636.00;;;;8371479;28;20250;-78